Time;durP1;ratioP1;P1;durP2;ratioP2;P2;SDS_P1;SDS_P2;PMS_P1;PMS_P2;Temp;Humidity;BMP_temperature;BMP_pressure;BME280_temperature;BME280_humidity;BME280_pressure;Samples;Min_cycle;Max_cycle;Signal;HPM_P1;HPM_P2
2020/12/25 00:00:56;;;;;;;5.90;2.58;;;5.00;99.90;;;;;;10275275;28;20054;-65
2020/12/25 00:06:09;;;;;;;5.20;2.30;;;5.00;99.90;;;;;;10274998;28;20054;-65
2020/12/25 00:11:10;;;;;;;7.78;2.95;;;4.90;99.90;;;;;;10276452;28;20058;-65
2020/12/25 00:16:15;;;;;;;8.18;3.38;;;4.90;99.90;;;;;;10269313;28;20061;-64
2020/12/25 00:21:17;;;;;;;7.85;2.55;;;4.80;99.90;;;;;;10278143;28;20454;-64
2020/12/25 00:26:27;;;;;;;9.48;3.15;;;4.80;99.90;;;;;;10275724;28;20449;-64
2020/12/25 00:31:36;;;;;;;5.32;2.45;;;4.80;99.90;;;;;;10284883;28;20573;-64
2020/12/25 00:36:39;;;;;;;6.93;2.58;;;4.80;99.90;;;;;;10278462;28;20054;-64
2020/12/25 00:41:48;;;;;;;3.25;2.13;;;4.90;99.90;;;;;;10271719;28;20069;-64
2020/12/25 00:46:49;;;;;;;6.18;2.83;;;4.80;99.90;;;;;;10263661;28;20053;-64
2020/12/25 00:51:51;;;;;;;5.75;2.90;;;4.90;99.90;;;;;;10282857;28;20445;-64
2020/12/25 00:56:52;;;;;;;4.40;2.10;;;4.90;99.90;;;;;;10279611;28;20050;-64
2020/12/25 01:01:53;;;;;;;5.72;2.53;;;4.80;99.90;;;;;;10269970;28;20047;-64
2020/12/25 01:06:54;;;;;;;5.10;2.30;;;4.90;99.90;;;;;;10275045;28;20188;-65
2020/12/25 01:11:59;;;;;;;5.50;2.05;;;4.90;99.90;;;;;;10278797;28;20141;-65
2020/12/25 01:17:00;;;;;;;3.95;1.48;;;4.90;99.90;;;;;;10283566;28;20051;-65
2020/12/25 01:22:01;;;;;;;3.05;1.17;;;4.90;99.90;;;;;;10278985;28;20102;-65
2020/12/25 01:27:02;;;;;;;4.15;1.02;;;4.90;99.90;;;;;;10293417;28;20047;-65
2020/12/25 01:32:04;;;;;;;6.40;2.20;;;4.90;99.90;;;;;;10280059;28;20058;-65
2020/12/25 01:37:07;;;;;;;5.40;2.22;;;4.90;99.90;;;;;;10275243;28;20461;-65
2020/12/25 01:42:08;;;;;;;6.53;1.50;;;4.80;99.90;;;;;;10279917;28;20065;-65
2020/12/25 01:47:10;;;;;;;2.25;1.20;;;4.80;99.90;;;;;;10279980;28;20050;-65
2020/12/25 01:52:13;;;;;;;4.32;1.95;;;4.70;99.90;;;;;;10279471;28;20050;-65
2020/12/25 01:57:16;;;;;;;2.95;1.17;;;4.70;99.90;;;;;;10280791;28;20063;-65
2020/12/25 02:02:18;;;;;;;3.50;1.27;;;4.60;99.90;;;;;;10275113;28;20054;-67
2020/12/25 02:07:26;;;;;;;2.80;1.17;;;4.60;99.90;;;;;;10285838;28;20042;-67
2020/12/25 02:12:27;;;;;;;4.43;1.55;;;4.60;99.90;;;;;;10281113;28;20050;-68
2020/12/25 02:17:29;;;;;;;2.88;1.38;;;4.60;99.90;;;;;;10282374;28;20038;-68
2020/12/25 02:22:30;;;;;;;4.18;0.90;;;4.50;99.90;;;;;;10281293;28;20057;-68
2020/12/25 02:27:31;;;;;;;5.05;1.05;;;4.50;99.90;;;;;;10284966;28;20046;-68
2020/12/25 02:32:37;;;;;;;1.38;0.80;;;4.50;99.90;;;;;;10275197;28;20042;-68
2020/12/25 02:37:47;;;;;;;2.88;0.70;;;4.50;99.90;;;;;;10278935;28;20047;-68
2020/12/25 02:42:48;;;;;;;1.17;0.68;;;4.40;99.90;;;;;;10275590;28;20468;-68
2020/12/25 02:47:50;;;;;;;2.13;0.65;;;4.40;99.90;;;;;;10279616;28;20046;-68
2020/12/25 02:52:51;;;;;;;3.90;0.68;;;4.40;99.90;;;;;;10280820;28;20047;-68
2020/12/25 02:57:52;;;;;;;4.07;0.80;;;4.30;99.90;;;;;;10283464;28;21016;-68
2020/12/25 03:02:54;;;;;;;3.08;0.70;;;4.20;99.90;;;;;;10282126;28;20233;-68
2020/12/25 03:08:07;;;;;;;1.98;0.68;;;4.20;99.90;;;;;;10281188;28;20051;-67
2020/12/25 03:13:08;;;;;;;4.53;0.90;;;4.20;99.90;;;;;;10277646;28;20050;-68
2020/12/25 03:18:09;;;;;;;2.63;0.68;;;4.20;99.90;;;;;;10282565;28;20062;-68
2020/12/25 03:23:11;;;;;;;2.25;0.73;;;4.20;99.90;;;;;;10278472;28;20050;-68
2020/12/25 03:28:12;;;;;;;2.60;0.70;;;4.10;99.90;;;;;;10281632;28;20047;-68
2020/12/25 03:33:13;;;;;;;1.77;0.70;;;4.10;99.90;;;;;;10280523;28;20050;-69
2020/12/25 03:38:30;;;;;;;2.45;0.77;;;4.10;99.90;;;;;;10241735;28;20519;-68
2020/12/25 03:43:31;;;;;;;2.25;0.75;;;4.10;99.90;;;;;;10273962;28;20059;-67
2020/12/25 03:48:32;;;;;;;1.48;0.60;;;4.10;99.90;;;;;;10277208;28;20477;-67
2020/12/25 03:53:33;;;;;;;2.30;0.77;;;4.20;99.90;;;;;;10279398;28;20043;-67
2020/12/25 03:58:34;;;;;;;2.67;0.70;;;4.20;99.90;;;;;;10282135;28;20057;-67
2020/12/25 04:03:36;;;;;;;1.67;0.65;;;4.20;99.90;;;;;;10279590;28;20563;-67
2020/12/25 04:08:45;;;;;;;2.65;0.80;;;4.30;99.90;;;;;;10274137;28;20560;-67
2020/12/25 04:13:47;;;;;;;1.45;0.60;;;4.30;99.90;;;;;;10272827;28;20512;-68
2020/12/25 04:18:48;;;;;;;1.40;0.70;;;4.40;99.90;;;;;;10271677;28;20042;-67
2020/12/25 04:23:49;;;;;;;1.55;0.60;;;4.40;99.90;;;;;;10280682;28;20515;-67
2020/12/25 04:28:50;;;;;;;2.15;0.60;;;4.40;99.90;;;;;;10274723;28;20121;-67
2020/12/25 04:33:53;;;;;;;1.48;0.73;;;4.50;99.90;;;;;;10278105;28;20045;-67
2020/12/25 04:39:05;;;;;;;1.98;1.05;;;4.50;99.90;;;;;;10274256;28;20039;-67
2020/12/25 04:44:07;;;;;;;1.75;0.73;;;4.50;99.90;;;;;;10280794;28;20039;-67
2020/12/25 04:49:09;;;;;;;2.13;0.80;;;4.50;99.90;;;;;;10290299;28;20050;-68
2020/12/25 04:54:10;;;;;;;1.88;0.85;;;4.50;99.90;;;;;;10289278;28;21050;-67
2020/12/25 04:59:12;;;;;;;1.30;1.00;;;4.40;99.90;;;;;;10288866;28;20140;-67
2020/12/25 05:04:20;;;;;;;1.88;0.80;;;4.40;99.90;;;;;;10296050;28;20050;-67
2020/12/25 05:09:25;;;;;;;2.17;0.85;;;4.30;99.90;;;;;;10289692;28;20051;-67
2020/12/25 05:14:33;;;;;;;1.83;0.90;;;4.30;99.90;;;;;;10287967;28;20050;-67
2020/12/25 05:19:35;;;;;;;2.25;0.90;;;4.30;99.90;;;;;;10293624;28;20763;-67
2020/12/25 05:24:39;;;;;;;1.60;0.80;;;4.10;99.90;;;;;;10285329;28;20054;-67
2020/12/25 05:29:41;;;;;;;1.08;0.80;;;4.10;99.90;;;;;;10291626;28;20050;-67
2020/12/25 05:34:44;;;;;;;1.70;1.00;;;4.00;99.90;;;;;;10283648;28;20162;-67
2020/12/25 05:39:47;;;;;;;3.13;1.10;;;3.90;99.90;;;;;;10287772;28;20042;-68
2020/12/25 05:44:49;;;;;;;3.88;1.67;;;3.80;99.90;;;;;;10303727;28;20042;-67
2020/12/25 05:49:51;;;;;;;3.70;1.63;;;3.80;99.90;;;;;;10291992;28;20355;-68
2020/12/25 05:54:55;;;;;;;2.28;1.42;;;3.80;99.90;;;;;;10279107;28;20043;-68
2020/12/25 06:00:01;;;;;;;2.45;1.17;;;3.70;99.90;;;;;;10281145;28;20054;-68
2020/12/25 06:05:03;;;;;;;3.22;1.05;;;3.60;99.90;;;;;;10281825;28;20055;-68
2020/12/25 06:10:04;;;;;;;2.47;1.30;;;3.60;99.90;;;;;;10277272;28;20058;-68
2020/12/25 06:15:07;;;;;;;4.18;1.63;;;3.50;99.90;;;;;;10284565;28;20049;-68
2020/12/25 06:20:13;;;;;;;4.07;1.50;;;3.50;99.90;;;;;;10285383;28;20050;-68
2020/12/25 06:25:16;;;;;;;3.17;1.38;;;3.50;99.90;;;;;;10282395;28;20054;-68
2020/12/25 06:30:25;;;;;;;4.88;1.65;;;3.40;99.90;;;;;;10273638;28;20756;-68
2020/12/25 06:35:33;;;;;;;2.78;1.05;;;3.40;99.90;;;;;;10285072;28;20128;-68
2020/12/25 06:40:36;;;;;;;1.95;1.50;;;3.40;99.90;;;;;;10277520;28;20066;-68
2020/12/25 06:45:37;;;;;;;2.92;1.27;;;3.50;99.90;;;;;;10278576;28;20046;-68
2020/12/25 06:50:45;;;;;;;2.72;1.98;;;3.50;99.90;;;;;;10280579;28;20061;-68
2020/12/25 06:55:46;;;;;;;3.65;1.50;;;3.50;99.90;;;;;;10277013;28;20057;-68
2020/12/25 07:00:56;;;;;;;5.35;1.98;;;3.40;99.90;;;;;;10272473;28;20388;-68
2020/12/25 07:06:01;;;;;;;4.38;1.85;;;3.40;99.90;;;;;;10279074;28;20373;-68
2020/12/25 07:11:07;;;;;;;3.50;1.58;;;3.40;99.90;;;;;;10261476;28;20049;-68
2020/12/25 07:16:08;;;;;;;4.45;1.38;;;3.40;99.90;;;;;;10281375;28;20461;-68
2020/12/25 07:21:10;;;;;;;3.05;1.40;;;3.40;99.90;;;;;;10276986;28;20061;-68
2020/12/25 07:26:12;;;;;;;3.60;1.30;;;3.40;99.90;;;;;;10274225;28;20050;-63
2020/12/25 07:31:13;;;;;;;5.90;1.73;;;3.30;99.90;;;;;;10271408;28;20054;-64
2020/12/25 07:36:15;;;;;;;5.43;2.42;;;3.30;99.90;;;;;;10277372;28;20070;-63
2020/12/25 07:41:16;;;;;;;5.10;1.40;;;3.30;99.90;;;;;;10270481;28;20371;-63
2020/12/25 07:46:18;;;;;;;3.80;1.75;;;3.30;99.90;;;;;;10285479;28;20047;-63
2020/12/25 07:51:19;;;;;;;2.33;1.38;;;3.20;99.90;;;;;;10282058;28;20148;-64
2020/12/25 07:56:22;;;;;;;3.60;1.83;;;3.20;99.90;;;;;;10279567;28;20038;-64
2020/12/25 08:01:25;;;;;;;3.53;1.80;;;3.10;99.90;;;;;;10287663;28;20054;-64
2020/12/25 08:06:28;;;;;;;3.00;1.40;;;3.10;99.90;;;;;;10286561;28;20065;-63
2020/12/25 08:11:31;;;;;;;5.80;2.30;;;3.10;99.90;;;;;;10282912;28;20050;-63
2020/12/25 08:16:35;;;;;;;11.07;4.47;;;3.20;99.90;;;;;;10273947;28;20108;-64
2020/12/25 08:21:38;;;;;;;12.90;6.28;;;3.20;99.90;;;;;;10277921;28;20161;-63
2020/12/25 08:26:41;;;;;;;2.55;1.67;;;3.10;99.90;;;;;;10278377;28;20061;-64
2020/12/25 08:31:43;;;;;;;2.33;1.58;;;3.10;99.90;;;;;;10276315;28;20415;-64
2020/12/25 08:36:56;;;;;;;4.72;2.08;;;3.10;99.90;;;;;;10281755;28;20046;-63
2020/12/25 08:41:58;;;;;;;2.47;1.13;;;3.10;99.90;;;;;;10194013;28;20062;-63
2020/12/25 08:47:07;;;;;;;3.00;1.20;;;3.20;99.90;;;;;;10279898;28;20056;-64
2020/12/25 08:52:24;;;;;;;1.63;1.20;;;3.50;99.90;;;;;;10271332;28;20065;-64
2020/12/25 08:57:26;;;;;;;3.42;0.85;;;3.60;99.90;;;;;;10276235;28;20047;-64
2020/12/25 09:02:27;;;;;;;1.65;1.02;;;3.70;99.90;;;;;;10278329;28;20208;-64
2020/12/25 09:07:29;;;;;;;2.97;1.40;;;3.60;99.90;;;;;;10269622;28;20049;-64
2020/12/25 09:12:30;;;;;;;2.00;1.27;;;3.50;99.90;;;;;;10275684;28;20050;-63
2020/12/25 09:17:33;;;;;;;2.80;0.90;;;3.40;99.90;;;;;;10276332;28;20061;-64
2020/12/25 09:22:34;;;;;;;2.97;1.20;;;3.30;99.90;;;;;;10273189;28;20050;-64
2020/12/25 09:27:35;;;;;;;1.58;0.80;;;3.20;99.90;;;;;;10267991;28;20057;-63
2020/12/25 09:32:36;;;;;;;2.08;1.08;;;3.10;99.90;;;;;;10281676;28;20043;-65
2020/12/25 09:37:40;;;;;;;1.85;0.95;;;3.20;99.90;;;;;;10283032;28;20061;-65
2020/12/25 09:42:42;;;;;;;1.30;0.80;;;3.10;99.90;;;;;;10285963;28;20046;-65
2020/12/25 09:47:43;;;;;;;6.35;1.27;;;3.20;99.90;;;;;;10281124;28;20050;-65
2020/12/25 09:52:44;;;;;;;1.50;0.88;;;3.30;99.90;;;;;;10283136;28;20548;-65
2020/12/25 09:57:45;;;;;;;1.65;0.80;;;3.40;99.90;;;;;;10282192;28;20047;-63
2020/12/25 10:02:46;;;;;;;3.60;1.90;;;3.40;99.90;;;;;;10284832;28;20134;-63
2020/12/25 10:07:51;;;;;;;5.47;1.23;;;3.30;99.90;;;;;;10283972;28;20752;-63
2020/12/25 10:12:53;;;;;;;6.00;2.40;;;3.50;99.90;;;;;;10276687;28;20485;-64
2020/12/25 10:17:56;;;;;;;3.10;1.77;;;3.40;99.90;;;;;;10282272;28;20054;-63
2020/12/25 10:22:57;;;;;;;2.53;1.00;;;3.50;99.90;;;;;;10284483;28;20401;-63
2020/12/25 10:27:58;;;;;;;1.48;1.10;;;3.60;99.90;;;;;;10284453;28;20042;-63
2020/12/25 10:33:00;;;;;;;2.15;0.93;;;3.70;99.90;;;;;;10280260;28;20438;-64
2020/12/25 10:38:01;;;;;;;2.15;1.42;;;3.70;99.90;;;;;;10292523;28;20136;-63
2020/12/25 10:43:03;;;;;;;1.42;0.60;;;3.70;99.90;;;;;;10280336;28;20070;-63
2020/12/25 10:48:04;;;;;;;1.92;1.08;;;3.70;99.90;;;;;;10279844;28;20509;-63
2020/12/25 10:53:06;;;;;;;3.53;1.63;;;3.70;99.90;;;;;;10286756;28;20141;-63
2020/12/25 10:58:07;;;;;;;2.00;1.00;;;3.80;99.90;;;;;;10287302;28;20043;-63
2020/12/25 11:03:08;;;;;;;3.28;0.88;;;3.80;99.90;;;;;;10279389;28;20055;-63
2020/12/25 11:08:09;;;;;;;5.00;0.98;;;3.80;99.90;;;;;;10280677;28;20061;-63
2020/12/25 11:13:21;;;;;;;1.83;0.75;;;3.80;99.90;;;;;;10281798;28;20068;-63
2020/12/25 11:18:23;;;;;;;3.00;1.45;;;3.90;99.90;;;;;;10274641;28;20121;-63
2020/12/25 11:23:24;;;;;;;2.53;1.48;;;3.90;99.90;;;;;;10274439;28;20042;-63
2020/12/25 11:28:25;;;;;;;1.58;0.60;;;3.90;99.90;;;;;;10279474;28;20046;-63
2020/12/25 11:33:27;;;;;;;4.90;1.38;;;4.00;98.40;;;;;;10272032;28;20046;-63
2020/12/25 11:38:28;;;;;;;0.73;0.60;;;4.00;99.20;;;;;;10276091;28;20047;-63
2020/12/25 11:43:41;;;;;;;2.35;1.13;;;4.00;97.80;;;;;;10277171;28;20046;-63
2020/12/25 11:48:44;;;;;;;4.40;0.70;;;4.00;98.40;;;;;;10279165;28;20038;-63
2020/12/25 11:53:50;;;;;;;1.02;0.50;;;4.10;98.00;;;;;;10282525;28;20050;-63
2020/12/25 11:58:51;;;;;;;2.17;0.95;;;4.10;97.20;;;;;;10277265;28;20485;-63
2020/12/25 12:03:52;;;;;;;3.65;0.40;;;4.20;96.80;;;;;;10277827;28;20494;-63
2020/12/25 12:08:54;;;;;;;2.42;0.57;;;4.20;96.30;;;;;;10281414;28;20043;-63
2020/12/25 12:14:03;;;;;;;3.90;0.50;;;4.30;96.10;;;;;;10275726;28;20497;-63
2020/12/25 12:19:04;;;;;;;2.65;0.60;;;4.30;95.30;;;;;;10278752;28;20381;-64
2020/12/25 12:24:05;;;;;;;1.23;0.40;;;4.30;94.90;;;;;;10278558;28;20041;-64
2020/12/25 12:29:06;;;;;;;4.72;1.00;;;4.30;93.30;;;;;;10272070;28;20493;-63
2020/12/25 12:34:08;;;;;;;1.25;0.40;;;4.40;93.00;;;;;;10276925;28;20050;-63
2020/12/25 12:39:10;;;;;;;1.33;0.50;;;4.50;91.80;;;;;;10273285;28;20478;-64
2020/12/25 12:44:20;;;;;;;2.92;0.43;;;4.50;90.60;;;;;;10278172;28;20062;-64
2020/12/25 12:49:22;;;;;;;0.40;0.30;;;4.50;90.60;;;;;;10278148;28;20055;-64
2020/12/25 12:54:23;;;;;;;2.35;0.50;;;4.50;90.30;;;;;;10276786;28;20054;-64
2020/12/25 12:59:24;;;;;;;2.40;0.40;;;4.60;90.20;;;;;;10273475;28;20841;-64
2020/12/25 13:04:25;;;;;;;8.30;2.92;;;4.60;90.10;;;;;;10276433;28;20046;-64
2020/12/25 13:09:26;;;;;;;1.52;0.98;;;4.60;92.10;;;;;;10280401;28;20058;-65
2020/12/25 13:14:39;;;;;;;2.35;0.43;;;4.60;91.30;;;;;;10284589;28;20054;-64
2020/12/25 13:19:41;;;;;;;3.00;0.30;;;4.70;91.00;;;;;;10282368;28;20474;-64
2020/12/25 13:24:42;;;;;;;1.40;0.45;;;4.70;90.50;;;;;;10285887;28;20065;-63
2020/12/25 13:29:43;;;;;;;1.42;0.70;;;4.70;90.90;;;;;;10281169;28;20034;-63
2020/12/25 13:34:45;;;;;;;2.35;0.47;;;4.60;90.90;;;;;;10289557;28;20054;-63
2020/12/25 13:39:46;;;;;;;6.82;2.15;;;4.70;90.50;;;;;;10284646;28;20055;-63
2020/12/25 13:45:01;;;;;;;2.35;1.23;;;4.80;90.30;;;;;;10234944;28;20182;-63
2020/12/25 13:50:03;;;;;;;2.13;0.60;;;5.00;90.40;;;;;;10287756;28;20519;-63
2020/12/25 13:55:05;;;;;;;2.10;1.00;;;5.20;89.30;;;;;;10284231;28;20053;-63
2020/12/25 14:00:06;;;;;;;3.78;0.80;;;5.50;89.10;;;;;;10283565;28;20149;-63
2020/12/25 14:05:07;;;;;;;1.38;0.20;;;5.50;89.70;;;;;;10280619;28;20498;-63
2020/12/25 14:10:08;;;;;;;1.83;0.28;;;5.30;88.50;;;;;;10282285;28;20049;-63
2020/12/25 14:15:20;;;;;;;8.95;2.45;;;5.20;88.80;;;;;;10282218;28;20121;-62
2020/12/25 14:20:21;;;;;;;1.88;0.50;;;5.20;90.30;;;;;;10277853;28;20050;-63
2020/12/25 14:25:22;;;;;;;4.45;0.52;;;5.20;90.10;;;;;;10281041;28;20165;-63
2020/12/25 14:30:27;;;;;;;1.17;0.50;;;5.20;89.80;;;;;;10284410;28;20050;-63
2020/12/25 14:35:32;;;;;;;3.50;0.98;;;5.10;90.70;;;;;;10281350;28;20133;-63
2020/12/25 14:40:37;;;;;;;2.72;1.05;;;5.00;91.20;;;;;;10279795;28;20046;-63
2020/12/25 14:45:42;;;;;;;3.80;0.30;;;4.90;92.00;;;;;;10282703;28;20066;-63
2020/12/25 14:50:43;;;;;;;4.03;1.10;;;4.70;92.40;;;;;;10284110;28;20046;-63
2020/12/25 14:55:46;;;;;;;9.93;2.50;;;4.60;93.50;;;;;;10278249;28;20827;-63
2020/12/25 15:00:48;;;;;;;8.15;1.65;;;4.60;94.00;;;;;;10276511;28;20125;-66
2020/12/25 15:05:49;;;;;;;4.35;1.23;;;4.40;94.80;;;;;;10283396;28;20061;-66
2020/12/25 15:10:51;;;;;;;13.25;6.45;;;4.30;96.00;;;;;;10278916;28;20428;-66
2020/12/25 15:15:59;;;;;;;6.60;2.85;;;4.20;96.60;;;;;;10283361;28;20053;-66
2020/12/25 15:21:00;;;;;;;6.45;0.80;;;4.10;97.40;;;;;;10283796;28;20046;-64
2020/12/25 15:26:02;;;;;;;5.35;0.75;;;3.90;97.10;;;;;;10281736;28;20069;-64
2020/12/25 15:31:06;;;;;;;10.77;3.35;;;3.80;97.50;;;;;;10279893;28;20401;-63
2020/12/25 15:36:09;;;;;;;6.20;1.42;;;3.70;98.00;;;;;;10274713;28;20050;-63
2020/12/25 15:41:11;;;;;;;4.30;1.40;;;3.60;98.60;;;;;;10276934;28;20046;-63
2020/12/25 15:46:19;;;;;;;8.93;0.77;;;3.50;99.40;;;;;;10277965;28;20101;-63
2020/12/25 15:51:20;;;;;;;3.72;1.08;;;3.40;99.90;;;;;;10272951;28;20053;-62
2020/12/25 15:56:23;;;;;;;3.65;1.25;;;3.30;99.90;;;;;;10280276;28;20050;-63
2020/12/25 16:01:24;;;;;;;3.30;1.08;;;3.20;99.90;;;;;;10280255;28;20057;-63
2020/12/25 16:06:35;;;;;;;2.78;0.85;;;3.20;99.90;;;;;;10272201;28;20101;-63
2020/12/25 16:11:37;;;;;;;6.57;1.73;;;3.20;99.90;;;;;;10272799;28;20193;-63
2020/12/25 16:16:40;;;;;;;5.55;1.00;;;3.10;99.90;;;;;;10281658;28;20116;-64
2020/12/25 16:21:45;;;;;;;5.43;0.65;;;3.10;99.90;;;;;;10275646;28;20046;-63
2020/12/25 16:26:47;;;;;;;3.80;0.85;;;3.10;99.90;;;;;;10269892;28;20358;-63
2020/12/25 16:31:48;;;;;;;6.78;2.22;;;3.00;99.90;;;;;;10275287;28;20498;-63
2020/12/25 16:36:52;;;;;;;9.25;2.90;;;2.90;99.90;;;;;;10273787;28;20188;-63
2020/12/25 16:41:54;;;;;;;6.70;2.30;;;2.90;99.90;;;;;;10283032;28;20420;-62
2020/12/25 16:47:00;;;;;;;12.65;3.35;;;2.80;99.90;;;;;;10274575;28;20043;-63
2020/12/25 16:52:02;;;;;;;6.28;1.65;;;2.70;99.90;;;;;;10273363;28;20328;-63
2020/12/25 16:57:07;;;;;;;5.38;1.17;;;2.80;99.90;;;;;;10275087;28;20386;-62
2020/12/25 17:02:08;;;;;;;4.45;1.70;;;2.70;99.90;;;;;;10277495;28;20049;-63
2020/12/25 17:07:09;;;;;;;19.08;6.95;;;2.70;99.90;;;;;;10275074;28;20627;-63
2020/12/25 17:12:10;;;;;;;9.13;3.30;;;2.70;99.90;;;;;;10274105;28;20062;-63
2020/12/25 17:17:18;;;;;;;24.63;11.05;;;2.60;99.90;;;;;;10275123;28;20137;-64
2020/12/25 17:22:21;;;;;;;20.77;9.82;;;2.50;99.90;;;;;;10277395;28;20422;-62
2020/12/25 17:27:23;;;;;;;21.63;10.45;;;2.50;99.90;;;;;;10280222;28;20078;-63
2020/12/25 17:32:25;;;;;;;25.90;12.23;;;2.50;99.90;;;;;;10284187;28;20066;-63
2020/12/25 17:37:27;;;;;;;20.23;9.73;;;2.50;99.90;;;;;;10289616;28;20053;-63
2020/12/25 17:42:45;;;;;;;6.13;1.40;;;2.60;99.90;;;;;;10275489;28;20173;-64
2020/12/25 17:47:46;;;;;;;9.05;2.85;;;2.70;99.90;;;;;;10281399;28;20050;-64
2020/12/25 17:52:47;;;;;;;7.35;2.33;;;2.70;99.90;;;;;;10282902;28;20053;-64
2020/12/25 17:57:49;;;;;;;3.55;1.20;;;2.70;99.90;;;;;;10287685;28;20409;-63
2020/12/25 18:02:50;;;;;;;3.55;0.80;;;2.70;99.90;;;;;;10289193;28;20053;-66
2020/12/25 18:07:52;;;;;;;2.58;0.60;;;2.60;99.90;;;;;;10288068;28;20469;-64
2020/12/25 18:12:54;;;;;;;3.25;0.60;;;2.50;99.90;;;;;;10286671;28;20042;-64
2020/12/25 18:17:55;;;;;;;4.32;1.45;;;2.40;99.90;;;;;;10290347;28;20046;-63
2020/12/25 18:22:57;;;;;;;6.43;1.60;;;2.40;99.90;;;;;;10291677;28;20050;-64
2020/12/25 18:27:58;;;;;;;9.50;3.25;;;2.20;99.90;;;;;;10284962;28;20047;-65
2020/12/25 18:33:00;;;;;;;11.30;5.15;;;2.10;99.90;;;;;;10294002;28;20039;-65
2020/12/25 18:38:01;;;;;;;7.07;2.88;;;2.00;99.90;;;;;;10289599;28;20053;-65
2020/12/25 18:43:03;;;;;;;24.77;10.45;;;1.90;99.90;;;;;;10278650;28;20051;-65
2020/12/25 18:48:12;;;;;;;9.30;3.50;;;1.80;99.90;;;;;;10287652;28;20150;-65
2020/12/25 18:53:14;;;;;;;6.15;2.25;;;1.70;99.90;;;;;;10276482;28;20429;-65
2020/12/25 18:58:16;;;;;;;13.77;6.47;;;1.70;99.90;;;;;;10287999;28;20053;-63
2020/12/25 19:03:17;;;;;;;10.13;3.00;;;1.60;99.90;;;;;;10282109;28;20050;-65
2020/12/25 19:08:18;;;;;;;13.80;4.72;;;1.50;99.90;;;;;;10287840;28;20049;-66
2020/12/25 19:13:20;;;;;;;14.77;5.25;;;1.50;99.90;;;;;;10287507;28;20059;-66
2020/12/25 19:18:34;;;;;;;12.35;4.43;;;-0.20;99.90;;;;;;10280964;28;20058;-66
2020/12/25 19:23:35;;;;;;;13.38;4.70;;;1.50;99.90;;;;;;10285222;28;20050;-64
2020/12/25 19:28:36;;;;;;;12.70;5.53;;;1.60;99.90;;;;;;10287066;28;20053;-64
2020/12/25 19:33:41;;;;;;;12.20;6.32;;;1.70;99.90;;;;;;10285536;28;20420;-64
2020/12/25 19:38:45;;;;;;;15.32;5.70;;;1.80;99.90;;;;;;10285837;28;20057;-64
2020/12/25 19:43:49;;;;;;;17.08;5.63;;;1.80;99.90;;;;;;10285318;28;20521;-64
2020/12/25 19:48:50;;;;;;;8.30;2.38;;;1.90;99.90;;;;;;10282918;28;20433;-64
2020/12/25 19:53:55;;;;;;;7.53;3.42;;;2.00;99.90;;;;;;10278283;28;20157;-64
2020/12/25 19:58:56;;;;;;;8.63;2.83;;;2.10;99.90;;;;;;10288308;28;20513;-65
2020/12/25 20:03:59;;;;;;;11.43;3.60;;;2.20;99.90;;;;;;10281029;28;20154;-63
2020/12/25 20:09:00;;;;;;;9.52;4.43;;;2.10;99.90;;;;;;10281311;28;20043;-64
2020/12/25 20:14:01;;;;;;;16.02;6.55;;;2.10;99.90;;;;;;10281588;28;20046;-64
2020/12/25 20:19:10;;;;;;;;;;;1.90;99.90;;;;;;10279877;28;20785;-64
2020/12/25 20:24:11;;;;;;;16.92;7.88;;;1.80;99.90;;;;;;10285443;28;19922;-64
2020/12/25 20:29:14;;;;;;;17.75;8.30;;;1.70;99.90;;;;;;10283634;28;20070;-64
2020/12/25 20:34:16;;;;;;;14.38;5.93;;;1.50;99.90;;;;;;10279398;28;20120;-64
2020/12/25 20:39:18;;;;;;;11.32;5.20;;;1.30;99.90;;;;;;10276466;28;20538;-64
2020/12/25 20:44:19;;;;;;;19.20;8.10;;;1.10;99.90;;;;;;10281474;28;20489;-64
2020/12/25 20:49:31;;;;;;;15.35;7.07;;;0.90;99.90;;;;;;10276468;28;20469;-63
2020/12/25 20:54:32;;;;;;;16.25;8.40;;;0.90;99.90;;;;;;10278717;28;20048;-64
2020/12/25 20:59:33;;;;;;;14.20;6.45;;;0.80;99.90;;;;;;10273730;28;20042;-63
2020/12/25 21:04:35;;;;;;;37.45;13.38;;;0.80;99.90;;;;;;10277781;28;20046;-64
2020/12/25 21:09:36;;;;;;;39.10;13.30;;;0.70;99.90;;;;;;10277375;28;20121;-63
2020/12/25 21:14:38;;;;;;;26.48;11.23;;;0.70;99.90;;;;;;10277046;28;20057;-64
2020/12/25 21:19:50;;;;;;;32.42;12.30;;;0.60;99.90;;;;;;10277666;28;20379;-63
2020/12/25 21:24:51;;;;;;;23.15;10.70;;;0.60;99.90;;;;;;10275949;28;20382;-64
2020/12/25 21:29:52;;;;;;;30.42;11.23;;;0.50;99.90;;;;;;10280442;28;20039;-64
2020/12/25 21:34:54;;;;;;;19.45;9.98;;;0.30;99.90;;;;;;10285009;28;20374;-64
2020/12/25 21:39:55;;;;;;;24.63;11.02;;;0.30;99.90;;;;;;10289565;28;20054;-63
2020/12/25 21:44:56;;;;;;;16.17;7.28;;;0.10;99.90;;;;;;10283689;28;20058;-64
2020/12/25 21:50:09;;;;;;;22.10;10.40;;;0.10;99.90;;;;;;10287012;28;20501;-64
2020/12/25 21:55:11;;;;;;;23.10;11.07;;;0.00;99.90;;;;;;10282942;28;20389;-64
2020/12/25 22:00:13;;;;;;;23.27;9.80;;;-0.10;99.90;;;;;;10281162;28;20054;-64
2020/12/25 22:05:17;;;;;;;19.13;10.05;;;-0.10;99.90;;;;;;10284166;28;20160;-64
2020/12/25 22:10:18;;;;;;;22.55;10.95;;;-0.20;99.90;;;;;;10275926;28;20058;-64
2020/12/25 22:15:19;;;;;;;23.83;11.40;;;-0.30;99.90;;;;;;10283212;28;20057;-65
2020/12/25 22:20:44;;;;;;;23.55;9.82;;;-0.30;99.90;;;;;;10284199;28;20125;-64
2020/12/25 22:25:47;;;;;;;15.18;7.25;;;-0.40;99.90;;;;;;10288463;28;20501;-64
2020/12/25 22:30:48;;;;;;;16.50;7.75;;;-0.40;99.90;;;;;;10286806;28;20649;-64
2020/12/25 22:35:49;;;;;;;19.45;8.20;;;-0.50;99.90;;;;;;10279660;28;20133;-64
2020/12/25 22:40:51;;;;;;;19.48;8.43;;;-0.50;99.90;;;;;;10284618;28;20054;-64
2020/12/25 22:45:52;;;;;;;15.05;7.20;;;-0.60;99.90;;;;;;10281869;28;20061;-64
2020/12/25 22:50:53;;;;;;;15.95;7.70;;;-0.60;99.90;;;;;;10275832;28;20047;-64
2020/12/25 22:55:54;;;;;;;13.43;7.70;;;-0.60;99.90;;;;;;10279925;28;20124;-64
2020/12/25 23:00:56;;;;;;;21.23;8.98;;;-0.70;99.90;;;;;;10286814;28;20050;-64
2020/12/25 23:05:57;;;;;;;23.42;10.43;;;-0.70;99.90;;;;;;10283373;28;20061;-64
2020/12/25 23:10:59;;;;;;;17.83;9.25;;;-0.80;99.90;;;;;;10296076;28;20129;-64
2020/12/25 23:16:00;;;;;;;21.15;8.32;;;-0.80;99.90;;;;;;10280668;28;20057;-64
2020/12/25 23:21:13;;;;;;;18.60;10.30;;;-0.80;99.90;;;;;;10278097;28;20053;-64
2020/12/25 23:26:17;;;;;;;31.90;11.27;;;-0.80;99.90;;;;;;10276735;28;20548;-64
2020/12/25 23:31:19;;;;;;;24.05;10.30;;;-0.80;99.90;;;;;;10278734;28;20054;-64
2020/12/25 23:36:22;;;;;;;25.83;10.63;;;-0.90;99.90;;;;;;10274306;28;20051;-64
2020/12/25 23:41:24;;;;;;;20.45;10.48;;;-0.90;99.90;;;;;;10277736;28;20038;-64
2020/12/25 23:46:26;;;;;;;25.42;12.32;;;-1.00;99.90;;;;;;10272696;28;20429;-64
2020/12/25 23:51:34;;;;;;;26.33;12.45;;;-1.00;99.90;;;;;;10277421;28;20038;-64
2020/12/25 23:56:35;;;;;;;27.88;12.80;;;-1.00;99.90;;;;;;10279051;28;20086;-64
